sensor_id;sensor_type;location;lat;lon;timestamp;P1;durP1;ratioP1;P2;durP2;ratioP2
52041;SDS011;38052;45.944;13.624;2023-02-28T00:00:25;6.88;;;3.58;;
52041;SDS011;38052;45.944;13.624;2023-02-28T00:02:51;5.70;;;3.90;;
52041;SDS011;38052;45.944;13.624;2023-02-28T00:05:20;6.20;;;3.47;;
52041;SDS011;38052;45.944;13.624;2023-02-28T00:07:47;6.75;;;3.80;;
52041;SDS011;38052;45.944;13.624;2023-02-28T00:10:14;4.00;;;3.22;;
52041;SDS011;38052;45.944;13.624;2023-02-28T00:12:44;5.37;;;2.83;;
52041;SDS011;38052;45.944;13.624;2023-02-28T00:15:11;6.50;;;3.25;;
52041;SDS011;38052;45.944;13.624;2023-02-28T00:17:37;6.95;;;3.75;;
52041;SDS011;38052;45.944;13.624;2023-02-28T00:20:04;5.82;;;3.45;;
52041;SDS011;38052;45.944;13.624;2023-02-28T00:22:35;5.20;;;3.15;;
52041;SDS011;38052;45.944;13.624;2023-02-28T00:25:01;6.70;;;3.75;;
52041;SDS011;38052;45.944;13.624;2023-02-28T00:27:28;4.53;;;2.80;;
52041;SDS011;38052;45.944;13.624;2023-02-28T00:29:55;4.53;;;2.78;;
52041;SDS011;38052;45.944;13.624;2023-02-28T00:32:21;5.10;;;3.05;;
52041;SDS011;38052;45.944;13.624;2023-02-28T00:34:47;10.23;;;3.22;;
52041;SDS011;38052;45.944;13.624;2023-02-28T00:37:14;5.18;;;3.15;;
52041;SDS011;38052;45.944;13.624;2023-02-28T00:39:40;5.88;;;4.07;;
52041;SDS011;38052;45.944;13.624;2023-02-28T00:42:07;6.43;;;3.95;;
52041;SDS011;38052;45.944;13.624;2023-02-28T00:44:33;9.05;;;4.07;;
52041;SDS011;38052;45.944;13.624;2023-02-28T00:47:00;6.55;;;3.55;;
52041;SDS011;38052;45.944;13.624;2023-02-28T00:49:27;6.85;;;4.10;;
52041;SDS011;38052;45.944;13.624;2023-02-28T00:51:54;5.90;;;3.92;;
52041;SDS011;38052;45.944;13.624;2023-02-28T00:54:21;8.70;;;4.35;;
52041;SDS011;38052;45.944;13.624;2023-02-28T00:56:48;6.20;;;3.65;;
52041;SDS011;38052;45.944;13.624;2023-02-28T00:59:15;4.63;;;2.90;;
52041;SDS011;38052;45.944;13.624;2023-02-28T01:01:42;7.05;;;3.97;;
52041;SDS011;38052;45.944;13.624;2023-02-28T01:04:09;6.05;;;3.47;;
52041;SDS011;38052;45.944;13.624;2023-02-28T01:06:35;7.78;;;3.40;;
52041;SDS011;38052;45.944;13.624;2023-02-28T01:09:02;6.88;;;3.85;;
52041;SDS011;38052;45.944;13.624;2023-02-28T01:11:29;5.85;;;3.88;;
52041;SDS011;38052;45.944;13.624;2023-02-28T01:13:56;7.25;;;3.60;;
52041;SDS011;38052;45.944;13.624;2023-02-28T01:16:23;6.40;;;3.75;;
52041;SDS011;38052;45.944;13.624;2023-02-28T01:18:50;7.68;;;4.20;;
52041;SDS011;38052;45.944;13.624;2023-02-28T01:21:17;7.20;;;3.85;;
52041;SDS011;38052;45.944;13.624;2023-02-28T01:23:43;5.88;;;3.60;;
52041;SDS011;38052;45.944;13.624;2023-02-28T01:26:14;5.82;;;3.83;;
52041;SDS011;38052;45.944;13.624;2023-02-28T01:28:41;5.15;;;3.60;;
52041;SDS011;38052;45.944;13.624;2023-02-28T01:31:08;9.48;;;4.15;;
52041;SDS011;38052;45.944;13.624;2023-02-28T01:33:35;11.15;;;5.50;;
52041;SDS011;38052;45.944;13.624;2023-02-28T01:36:02;5.13;;;4.25;;
52041;SDS011;38052;45.944;13.624;2023-02-28T01:38:29;8.05;;;4.60;;
52041;SDS011;38052;45.944;13.624;2023-02-28T01:40:56;6.85;;;4.57;;
52041;SDS011;38052;45.944;13.624;2023-02-28T01:43:24;5.32;;;3.85;;
52041;SDS011;38052;45.944;13.624;2023-02-28T01:45:51;6.68;;;4.47;;
52041;SDS011;38052;45.944;13.624;2023-02-28T01:48:17;6.95;;;4.35;;
52041;SDS011;38052;45.944;13.624;2023-02-28T01:50:44;7.10;;;4.03;;
52041;SDS011;38052;45.944;13.624;2023-02-28T01:53:12;7.68;;;4.22;;
52041;SDS011;38052;45.944;13.624;2023-02-28T01:55:40;6.53;;;4.28;;
52041;SDS011;38052;45.944;13.624;2023-02-28T01:58:07;4.68;;;3.58;;
52041;SDS011;38052;45.944;13.624;2023-02-28T02:00:34;6.47;;;4.15;;
52041;SDS011;38052;45.944;13.624;2023-02-28T02:03:06;9.60;;;4.35;;
52041;SDS011;38052;45.944;13.624;2023-02-28T02:05:33;6.65;;;4.07;;
52041;SDS011;38052;45.944;13.624;2023-02-28T02:08:06;8.82;;;4.93;;
52041;SDS011;38052;45.944;13.624;2023-02-28T02:10:40;8.05;;;4.55;;
52041;SDS011;38052;45.944;13.624;2023-02-28T02:33:46;7.20;;;4.15;;
52041;SDS011;38052;45.944;13.624;2023-02-28T02:36:19;6.88;;;4.70;;
52041;SDS011;38052;45.944;13.624;2023-02-28T02:38:52;9.27;;;4.80;;
52041;SDS011;38052;45.944;13.624;2023-02-28T02:43:50;4.75;;;3.65;;
52041;SDS011;38052;45.944;13.624;2023-02-28T02:46:21;9.73;;;4.82;;
52041;SDS011;38052;45.944;13.624;2023-02-28T02:48:48;6.90;;;4.70;;
52041;SDS011;38052;45.944;13.624;2023-02-28T02:51:14;8.55;;;4.90;;
52041;SDS011;38052;45.944;13.624;2023-02-28T02:53:46;6.47;;;4.40;;
52041;SDS011;38052;45.944;13.624;2023-02-28T02:56:14;6.50;;;3.80;;
52041;SDS011;38052;45.944;13.624;2023-02-28T02:58:41;9.13;;;4.20;;
52041;SDS011;38052;45.944;13.624;2023-02-28T03:01:12;9.50;;;4.78;;
52041;SDS011;38052;45.944;13.624;2023-02-28T03:03:40;6.55;;;3.53;;
52041;SDS011;38052;45.944;13.624;2023-02-28T03:06:07;6.32;;;4.10;;
52041;SDS011;38052;45.944;13.624;2023-02-28T03:08:34;6.53;;;4.18;;
52041;SDS011;38052;45.944;13.624;2023-02-28T03:11:03;8.57;;;4.45;;
52041;SDS011;38052;45.944;13.624;2023-02-28T03:24:11;7.28;;;4.32;;
52041;SDS011;38052;45.944;13.624;2023-02-28T03:26:52;6.80;;;4.55;;
52041;SDS011;38052;45.944;13.624;2023-02-28T03:29:34;7.47;;;4.55;;
52041;SDS011;38052;45.944;13.624;2023-02-28T03:32:05;8.55;;;4.80;;
52041;SDS011;38052;45.944;13.624;2023-02-28T03:34:40;6.38;;;4.20;;
52041;SDS011;38052;45.944;13.624;2023-02-28T03:37:09;7.18;;;3.92;;
52041;SDS011;38052;45.944;13.624;2023-02-28T03:39:39;6.95;;;4.55;;
52041;SDS011;38052;45.944;13.624;2023-02-28T03:42:09;6.32;;;3.53;;
52041;SDS011;38052;45.944;13.624;2023-02-28T03:47:05;6.65;;;3.83;;
52041;SDS011;38052;45.944;13.624;2023-02-28T03:50:06;7.38;;;4.53;;
52041;SDS011;38052;45.944;13.624;2023-02-28T03:52:27;6.50;;;4.38;;
52041;SDS011;38052;45.944;13.624;2023-02-28T03:54:56;7.82;;;3.92;;
52041;SDS011;38052;45.944;13.624;2023-02-28T03:57:25;4.90;;;3.30;;
52041;SDS011;38052;45.944;13.624;2023-02-28T03:59:56;7.07;;;4.10;;
52041;SDS011;38052;45.944;13.624;2023-02-28T04:02:24;6.80;;;4.20;;
52041;SDS011;38052;45.944;13.624;2023-02-28T04:04:51;6.35;;;4.38;;
52041;SDS011;38052;45.944;13.624;2023-02-28T04:07:17;7.82;;;4.28;;
52041;SDS011;38052;45.944;13.624;2023-02-28T04:09:43;5.05;;;3.72;;
52041;SDS011;38052;45.944;13.624;2023-02-28T04:12:10;8.93;;;4.50;;
52041;SDS011;38052;45.944;13.624;2023-02-28T04:14:36;9.35;;;4.95;;
52041;SDS011;38052;45.944;13.624;2023-02-28T04:17:03;5.82;;;4.15;;
52041;SDS011;38052;45.944;13.624;2023-02-28T04:19:29;7.85;;;3.85;;
52041;SDS011;38052;45.944;13.624;2023-02-28T04:21:55;7.15;;;4.50;;
52041;SDS011;38052;45.944;13.624;2023-02-28T04:24:23;7.75;;;4.38;;
52041;SDS011;38052;45.944;13.624;2023-02-28T04:26:50;6.78;;;4.38;;
52041;SDS011;38052;45.944;13.624;2023-02-28T04:29:21;6.50;;;4.40;;
52041;SDS011;38052;45.944;13.624;2023-02-28T04:31:48;7.82;;;4.80;;
52041;SDS011;38052;45.944;13.624;2023-02-28T04:34:14;6.18;;;4.55;;
52041;SDS011;38052;45.944;13.624;2023-02-28T04:36:40;7.05;;;4.82;;
52041;SDS011;38052;45.944;13.624;2023-02-28T04:39:07;7.22;;;4.65;;
52041;SDS011;38052;45.944;13.624;2023-02-28T04:41:34;7.88;;;4.57;;
52041;SDS011;38052;45.944;13.624;2023-02-28T04:44:00;6.03;;;4.05;;
52041;SDS011;38052;45.944;13.624;2023-02-28T04:46:26;7.43;;;3.80;;
52041;SDS011;38052;45.944;13.624;2023-02-28T04:48:52;6.68;;;4.25;;
52041;SDS011;38052;45.944;13.624;2023-02-28T04:51:19;5.30;;;3.70;;
52041;SDS011;38052;45.944;13.624;2023-02-28T04:53:46;6.50;;;4.10;;
52041;SDS011;38052;45.944;13.624;2023-02-28T04:56:13;8.55;;;3.72;;
52041;SDS011;38052;45.944;13.624;2023-02-28T04:58:40;11.50;;;4.25;;
52041;SDS011;38052;45.944;13.624;2023-02-28T05:01:14;6.35;;;3.85;;
52041;SDS011;38052;45.944;13.624;2023-02-28T05:03:42;8.45;;;3.83;;
52041;SDS011;38052;45.944;13.624;2023-02-28T05:06:09;6.25;;;4.53;;
52041;SDS011;38052;45.944;13.624;2023-02-28T05:08:35;6.07;;;4.40;;
52041;SDS011;38052;45.944;13.624;2023-02-28T05:11:02;5.68;;;4.07;;
52041;SDS011;38052;45.944;13.624;2023-02-28T05:13:29;6.40;;;4.50;;
52041;SDS011;38052;45.944;13.624;2023-02-28T05:15:55;6.78;;;3.97;;
52041;SDS011;38052;45.944;13.624;2023-02-28T05:18:22;7.38;;;4.15;;
52041;SDS011;38052;45.944;13.624;2023-02-28T05:20:48;8.35;;;4.38;;
52041;SDS011;38052;45.944;13.624;2023-02-28T05:23:15;8.35;;;5.25;;
52041;SDS011;38052;45.944;13.624;2023-02-28T05:25:42;10.80;;;5.15;;
52041;SDS011;38052;45.944;13.624;2023-02-28T05:28:08;7.35;;;3.90;;
52041;SDS011;38052;45.944;13.624;2023-02-28T05:30:35;7.95;;;4.13;;
52041;SDS011;38052;45.944;13.624;2023-02-28T05:33:01;6.57;;;4.25;;
52041;SDS011;38052;45.944;13.624;2023-02-28T05:35:28;7.20;;;4.10;;
52041;SDS011;38052;45.944;13.624;2023-02-28T05:37:54;6.78;;;4.38;;
52041;SDS011;38052;45.944;13.624;2023-02-28T05:40:21;6.60;;;3.90;;
52041;SDS011;38052;45.944;13.624;2023-02-28T05:42:47;7.07;;;4.28;;
52041;SDS011;38052;45.944;13.624;2023-02-28T05:45:15;6.82;;;3.85;;
52041;SDS011;38052;45.944;13.624;2023-02-28T05:47:42;7.35;;;4.55;;
52041;SDS011;38052;45.944;13.624;2023-02-28T05:50:08;7.68;;;4.55;;
52041;SDS011;38052;45.944;13.624;2023-02-28T05:52:35;7.60;;;4.70;;
52041;SDS011;38052;45.944;13.624;2023-02-28T05:55:02;6.30;;;3.97;;
52041;SDS011;38052;45.944;13.624;2023-02-28T05:57:28;9.70;;;4.20;;
52041;SDS011;38052;45.944;13.624;2023-02-28T05:59:55;5.57;;;3.42;;
52041;SDS011;38052;45.944;13.624;2023-02-28T06:02:21;8.10;;;4.35;;
52041;SDS011;38052;45.944;13.624;2023-02-28T06:04:48;6.43;;;4.03;;
52041;SDS011;38052;45.944;13.624;2023-02-28T06:07:14;6.68;;;3.97;;
52041;SDS011;38052;45.944;13.624;2023-02-28T06:09:42;7.07;;;4.10;;
52041;SDS011;38052;45.944;13.624;2023-02-28T06:12:09;8.90;;;4.07;;
52041;SDS011;38052;45.944;13.624;2023-02-28T06:14:36;6.63;;;4.38;;
52041;SDS011;38052;45.944;13.624;2023-02-28T06:17:03;6.40;;;3.97;;
52041;SDS011;38052;45.944;13.624;2023-02-28T06:19:29;6.45;;;4.90;;
52041;SDS011;38052;45.944;13.624;2023-02-28T06:21:56;6.60;;;4.15;;
52041;SDS011;38052;45.944;13.624;2023-02-28T06:24:24;6.60;;;4.63;;
52041;SDS011;38052;45.944;13.624;2023-02-28T06:26:52;9.90;;;4.78;;
52041;SDS011;38052;45.944;13.624;2023-02-28T06:29:19;7.22;;;4.38;;
52041;SDS011;38052;45.944;13.624;2023-02-28T06:31:45;6.40;;;4.05;;
52041;SDS011;38052;45.944;13.624;2023-02-28T06:34:12;7.03;;;3.85;;
52041;SDS011;38052;45.944;13.624;2023-02-28T06:36:39;7.70;;;4.10;;
52041;SDS011;38052;45.944;13.624;2023-02-28T06:39:06;6.07;;;3.95;;
52041;SDS011;38052;45.944;13.624;2023-02-28T06:41:32;8.77;;;3.78;;
52041;SDS011;38052;45.944;13.624;2023-02-28T06:44:03;6.82;;;4.30;;
52041;SDS011;38052;45.944;13.624;2023-02-28T06:46:30;7.20;;;3.97;;
52041;SDS011;38052;45.944;13.624;2023-02-28T06:48:57;6.45;;;3.67;;
52041;SDS011;38052;45.944;13.624;2023-02-28T06:51:24;6.25;;;3.70;;
52041;SDS011;38052;45.944;13.624;2023-02-28T06:53:50;7.20;;;4.90;;
52041;SDS011;38052;45.944;13.624;2023-02-28T06:56:17;7.05;;;4.25;;
52041;SDS011;38052;45.944;13.624;2023-02-28T06:58:48;10.00;;;4.13;;
52041;SDS011;38052;45.944;13.624;2023-02-28T07:01:14;8.40;;;4.20;;
52041;SDS011;38052;45.944;13.624;2023-02-28T07:03:41;9.88;;;4.55;;
52041;SDS011;38052;45.944;13.624;2023-02-28T07:06:07;12.10;;;4.38;;
52041;SDS011;38052;45.944;13.624;2023-02-28T07:08:34;7.95;;;4.13;;
52041;SDS011;38052;45.944;13.624;2023-02-28T07:11:01;8.73;;;4.88;;
52041;SDS011;38052;45.944;13.624;2023-02-28T07:13:27;6.85;;;5.07;;
52041;SDS011;38052;45.944;13.624;2023-02-28T07:16:01;8.82;;;5.20;;
52041;SDS011;38052;45.944;13.624;2023-02-28T07:18:28;6.90;;;4.47;;
52041;SDS011;38052;45.944;13.624;2023-02-28T07:20:54;9.10;;;4.82;;
52041;SDS011;38052;45.944;13.624;2023-02-28T07:23:21;8.10;;;4.18;;
52041;SDS011;38052;45.944;13.624;2023-02-28T07:25:47;10.50;;;5.13;;
52041;SDS011;38052;45.944;13.624;2023-02-28T07:28:15;6.00;;;3.95;;
52041;SDS011;38052;45.944;13.624;2023-02-28T07:30:41;7.63;;;4.00;;
52041;SDS011;38052;45.944;13.624;2023-02-28T07:33:08;6.65;;;4.20;;
52041;SDS011;38052;45.944;13.624;2023-02-28T07:35:34;9.38;;;5.65;;
52041;SDS011;38052;45.944;13.624;2023-02-28T07:38:01;8.10;;;4.80;;
52041;SDS011;38052;45.944;13.624;2023-02-28T07:40:28;7.90;;;4.43;;
52041;SDS011;38052;45.944;13.624;2023-02-28T07:42:54;8.68;;;5.38;;
52041;SDS011;38052;45.944;13.624;2023-02-28T07:45:21;8.38;;;4.43;;
52041;SDS011;38052;45.944;13.624;2023-02-28T07:47:47;9.27;;;4.63;;
52041;SDS011;38052;45.944;13.624;2023-02-28T07:50:15;7.82;;;4.25;;
52041;SDS011;38052;45.944;13.624;2023-02-28T07:52:41;7.03;;;4.03;;
52041;SDS011;38052;45.944;13.624;2023-02-28T07:55:08;6.93;;;4.28;;
52041;SDS011;38052;45.944;13.624;2023-02-28T07:57:35;8.02;;;3.92;;
52041;SDS011;38052;45.944;13.624;2023-02-28T08:00:03;6.35;;;4.03;;
52041;SDS011;38052;45.944;13.624;2023-02-28T08:02:30;8.48;;;4.40;;
52041;SDS011;38052;45.944;13.624;2023-02-28T08:04:56;7.18;;;4.68;;
52041;SDS011;38052;45.944;13.624;2023-02-28T08:07:22;6.55;;;4.07;;
52041;SDS011;38052;45.944;13.624;2023-02-28T08:09:49;7.95;;;4.63;;
52041;SDS011;38052;45.944;13.624;2023-02-28T08:12:15;7.03;;;3.90;;
52041;SDS011;38052;45.944;13.624;2023-02-28T08:14:41;7.47;;;4.55;;
52041;SDS011;38052;45.944;13.624;2023-02-28T08:17:09;7.00;;;3.42;;
52041;SDS011;38052;45.944;13.624;2023-02-28T08:19:35;7.82;;;3.58;;
52041;SDS011;38052;45.944;13.624;2023-02-28T08:22:02;5.85;;;4.22;;
52041;SDS011;38052;45.944;13.624;2023-02-28T08:24:28;7.28;;;4.55;;
52041;SDS011;38052;45.944;13.624;2023-02-28T08:26:55;5.70;;;3.15;;
52041;SDS011;38052;45.944;13.624;2023-02-28T08:29:22;6.00;;;3.83;;
52041;SDS011;38052;45.944;13.624;2023-02-28T08:31:49;8.63;;;5.25;;
52041;SDS011;38052;45.944;13.624;2023-02-28T08:34:16;9.40;;;4.63;;
52041;SDS011;38052;45.944;13.624;2023-02-28T08:36:42;6.57;;;4.13;;
52041;SDS011;38052;45.944;13.624;2023-02-28T08:39:10;10.98;;;3.95;;
52041;SDS011;38052;45.944;13.624;2023-02-28T08:41:36;7.97;;;4.30;;
52041;SDS011;38052;45.944;13.624;2023-02-28T08:44:03;5.57;;;3.72;;
52041;SDS011;38052;45.944;13.624;2023-02-28T08:46:30;8.65;;;3.78;;
52041;SDS011;38052;45.944;13.624;2023-02-28T08:48:57;8.18;;;4.03;;
52041;SDS011;38052;45.944;13.624;2023-02-28T08:51:25;5.63;;;3.67;;
52041;SDS011;38052;45.944;13.624;2023-02-28T08:53:58;4.72;;;3.35;;
52041;SDS011;38052;45.944;13.624;2023-02-28T08:56:26;6.57;;;3.90;;
52041;SDS011;38052;45.944;13.624;2023-02-28T08:58:53;5.85;;;3.00;;
52041;SDS011;38052;45.944;13.624;2023-02-28T09:01:21;5.28;;;3.20;;
52041;SDS011;38052;45.944;13.624;2023-02-28T09:03:49;6.00;;;3.38;;
52041;SDS011;38052;45.944;13.624;2023-02-28T09:06:16;6.45;;;3.78;;
52041;SDS011;38052;45.944;13.624;2023-02-28T09:08:43;6.47;;;3.78;;
52041;SDS011;38052;45.944;13.624;2023-02-28T09:11:09;16.77;;;4.15;;
52041;SDS011;38052;45.944;13.624;2023-02-28T09:13:36;5.97;;;3.42;;
52041;SDS011;38052;45.944;13.624;2023-02-28T09:16:04;4.43;;;2.55;;
52041;SDS011;38052;45.944;13.624;2023-02-28T09:18:31;5.30;;;3.15;;
52041;SDS011;38052;45.944;13.624;2023-02-28T09:20:57;4.45;;;2.58;;
52041;SDS011;38052;45.944;13.624;2023-02-28T09:23:24;6.68;;;2.97;;
52041;SDS011;38052;45.944;13.624;2023-02-28T09:25:51;5.00;;;3.22;;
52041;SDS011;38052;45.944;13.624;2023-02-28T09:28:18;5.55;;;2.80;;
52041;SDS011;38052;45.944;13.624;2023-02-28T09:30:45;6.35;;;3.17;;
52041;SDS011;38052;45.944;13.624;2023-02-28T09:33:12;4.53;;;3.13;;
52041;SDS011;38052;45.944;13.624;2023-02-28T09:35:39;4.82;;;2.83;;
52041;SDS011;38052;45.944;13.624;2023-02-28T09:38:05;4.93;;;2.58;;
52041;SDS011;38052;45.944;13.624;2023-02-28T09:40:34;5.78;;;2.80;;
52041;SDS011;38052;45.944;13.624;2023-02-28T09:43:01;5.75;;;3.53;;
52041;SDS011;38052;45.944;13.624;2023-02-28T09:47:54;5.75;;;2.33;;
52041;SDS011;38052;45.944;13.624;2023-02-28T09:50:41;6.32;;;3.08;;
52041;SDS011;38052;45.944;13.624;2023-02-28T09:53:33;3.95;;;2.25;;
52041;SDS011;38052;45.944;13.624;2023-02-28T09:56:04;4.68;;;3.00;;
52041;SDS011;38052;45.944;13.624;2023-02-28T09:58:33;5.85;;;2.78;;
52041;SDS011;38052;45.944;13.624;2023-02-28T10:04:03;10.68;;;3.70;;
52041;SDS011;38052;45.944;13.624;2023-02-28T10:06:33;4.47;;;2.92;;
52041;SDS011;38052;45.944;13.624;2023-02-28T10:09:03;5.63;;;3.37;;
52041;SDS011;38052;45.944;13.624;2023-02-28T10:11:32;4.38;;;2.85;;
52041;SDS011;38052;45.944;13.624;2023-02-28T10:14:01;6.78;;;3.70;;
52041;SDS011;38052;45.944;13.624;2023-02-28T10:19:03;7.45;;;3.28;;
52041;SDS011;38052;45.944;13.624;2023-02-28T10:21:36;7.18;;;3.10;;
52041;SDS011;38052;45.944;13.624;2023-02-28T10:24:50;5.55;;;3.13;;
52041;SDS011;38052;45.944;13.624;2023-02-28T10:26:51;4.68;;;2.70;;
52041;SDS011;38052;45.944;13.624;2023-02-28T10:29:18;8.00;;;4.10;;
52041;SDS011;38052;45.944;13.624;2023-02-28T10:31:44;7.60;;;3.85;;
52041;SDS011;38052;45.944;13.624;2023-02-28T10:34:12;6.55;;;3.55;;
52041;SDS011;38052;45.944;13.624;2023-02-28T10:36:39;5.53;;;3.15;;
52041;SDS011;38052;45.944;13.624;2023-02-28T10:41:52;7.90;;;3.30;;
52041;SDS011;38052;45.944;13.624;2023-02-28T10:44:22;5.45;;;3.63;;
52041;SDS011;38052;45.944;13.624;2023-02-28T10:46:49;8.43;;;3.90;;
52041;SDS011;38052;45.944;13.624;2023-02-28T10:49:19;4.78;;;2.63;;
52041;SDS011;38052;45.944;13.624;2023-02-28T10:51:52;7.40;;;3.30;;
52041;SDS011;38052;45.944;13.624;2023-02-28T10:54:30;6.45;;;3.85;;
52041;SDS011;38052;45.944;13.624;2023-02-28T10:59:42;9.32;;;3.35;;
52041;SDS011;38052;45.944;13.624;2023-02-28T11:05:24;5.38;;;3.30;;
52041;SDS011;38052;45.944;13.624;2023-02-28T11:07:52;6.53;;;4.13;;
52041;SDS011;38052;45.944;13.624;2023-02-28T11:10:19;6.00;;;3.33;;
52041;SDS011;38052;45.944;13.624;2023-02-28T11:12:46;6.72;;;3.78;;
52041;SDS011;38052;45.944;13.624;2023-02-28T11:15:21;6.75;;;3.65;;
52041;SDS011;38052;45.944;13.624;2023-02-28T11:17:53;7.45;;;3.75;;
52041;SDS011;38052;45.944;13.624;2023-02-28T11:20:24;5.53;;;3.53;;
52041;SDS011;38052;45.944;13.624;2023-02-28T11:22:50;6.47;;;3.45;;
52041;SDS011;38052;45.944;13.624;2023-02-28T11:27:48;6.55;;;3.40;;
52041;SDS011;38052;45.944;13.624;2023-02-28T11:32:55;7.60;;;4.28;;
52041;SDS011;38052;45.944;13.624;2023-02-28T11:35:30;6.88;;;3.75;;
52041;SDS011;38052;45.944;13.624;2023-02-28T11:37:56;5.80;;;3.70;;
52041;SDS011;38052;45.944;13.624;2023-02-28T11:40:46;5.32;;;3.60;;
52041;SDS011;38052;45.944;13.624;2023-02-28T11:45:55;8.38;;;3.55;;
52041;SDS011;38052;45.944;13.624;2023-02-28T11:56:49;5.43;;;3.72;;
52041;SDS011;38052;45.944;13.624;2023-02-28T12:04:42;6.15;;;4.20;;
52041;SDS011;38052;45.944;13.624;2023-02-28T12:12:30;7.50;;;4.63;;
52041;SDS011;38052;45.944;13.624;2023-02-28T12:26:10;5.78;;;3.63;;
52041;SDS011;38052;45.944;13.624;2023-02-28T12:28:46;6.63;;;3.33;;
52041;SDS011;38052;45.944;13.624;2023-02-28T12:31:16;6.97;;;4.05;;
52041;SDS011;38052;45.944;13.624;2023-02-28T12:33:45;6.20;;;4.03;;
52041;SDS011;38052;45.944;13.624;2023-02-28T12:36:13;6.70;;;4.00;;
52041;SDS011;38052;45.944;13.624;2023-02-28T12:43:49;7.18;;;4.80;;
52041;SDS011;38052;45.944;13.624;2023-02-28T12:46:22;6.35;;;4.28;;
52041;SDS011;38052;45.944;13.624;2023-02-28T12:48:55;8.20;;;4.00;;
52041;SDS011;38052;45.944;13.624;2023-02-28T12:51:21;9.05;;;3.88;;
52041;SDS011;38052;45.944;13.624;2023-02-28T12:59:02;5.05;;;3.10;;
52041;SDS011;38052;45.944;13.624;2023-02-28T13:14:15;6.25;;;4.40;;
52041;SDS011;38052;45.944;13.624;2023-02-28T13:19:23;5.82;;;4.10;;
52041;SDS011;38052;45.944;13.624;2023-02-28T13:34:37;6.28;;;4.32;;
52041;SDS011;38052;45.944;13.624;2023-02-28T13:47:35;5.95;;;4.18;;
52041;SDS011;38052;45.944;13.624;2023-02-28T13:52:49;12.48;;;5.85;;
52041;SDS011;38052;45.944;13.624;2023-02-28T13:57:54;7.85;;;5.35;;
52041;SDS011;38052;45.944;13.624;2023-02-28T14:05:36;9.55;;;4.47;;
52041;SDS011;38052;45.944;13.624;2023-02-28T14:08:06;9.30;;;5.57;;
52041;SDS011;38052;45.944;13.624;2023-02-28T14:10:45;7.45;;;4.32;;
52041;SDS011;38052;45.944;13.624;2023-02-28T14:13:13;7.97;;;5.10;;
52041;SDS011;38052;45.944;13.624;2023-02-28T14:15:43;8.80;;;4.30;;
52041;SDS011;38052;45.944;13.624;2023-02-28T14:18:18;10.30;;;4.40;;
52041;SDS011;38052;45.944;13.624;2023-02-28T14:20:46;8.90;;;5.05;;
52041;SDS011;38052;45.944;13.624;2023-02-28T14:41:20;9.20;;;6.05;;
52041;SDS011;38052;45.944;13.624;2023-02-28T14:43:54;8.10;;;5.35;;
52041;SDS011;38052;45.944;13.624;2023-02-28T14:46:20;6.70;;;4.57;;
52041;SDS011;38052;45.944;13.624;2023-02-28T14:48:47;8.25;;;5.55;;
52041;SDS011;38052;45.944;13.624;2023-02-28T14:51:18;8.75;;;5.85;;
52041;SDS011;38052;45.944;13.624;2023-02-28T14:53:45;8.13;;;5.18;;
52041;SDS011;38052;45.944;13.624;2023-02-28T14:56:24;7.70;;;5.20;;
52041;SDS011;38052;45.944;13.624;2023-02-28T14:58:51;8.82;;;5.53;;
52041;SDS011;38052;45.944;13.624;2023-02-28T15:01:18;8.43;;;5.57;;
52041;SDS011;38052;45.944;13.624;2023-02-28T15:03:45;10.98;;;6.03;;
52041;SDS011;38052;45.944;13.624;2023-02-28T15:06:13;13.48;;;6.50;;
52041;SDS011;38052;45.944;13.624;2023-02-28T15:08:40;10.80;;;6.13;;
52041;SDS011;38052;45.944;13.624;2023-02-28T15:11:07;16.17;;;5.80;;
52041;SDS011;38052;45.944;13.624;2023-02-28T15:13:45;8.50;;;6.38;;
52041;SDS011;38052;45.944;13.624;2023-02-28T15:21:10;9.52;;;6.43;;
52041;SDS011;38052;45.944;13.624;2023-02-28T15:23:38;9.13;;;6.47;;
52041;SDS011;38052;45.944;13.624;2023-02-28T15:26:06;10.25;;;6.88;;
52041;SDS011;38052;45.944;13.624;2023-02-28T15:28:33;8.13;;;5.55;;
52041;SDS011;38052;45.944;13.624;2023-02-28T15:31:01;7.65;;;4.85;;
52041;SDS011;38052;45.944;13.624;2023-02-28T15:33:28;13.57;;;5.80;;
52041;SDS011;38052;45.944;13.624;2023-02-28T15:36:11;10.57;;;5.40;;
52041;SDS011;38052;45.944;13.624;2023-02-28T15:38:39;11.45;;;6.65;;
52041;SDS011;38052;45.944;13.624;2023-02-28T15:41:20;13.18;;;7.30;;
52041;SDS011;38052;45.944;13.624;2023-02-28T15:43:47;11.20;;;7.28;;
52041;SDS011;38052;45.944;13.624;2023-02-28T15:46:13;10.00;;;7.57;;
52041;SDS011;38052;45.944;13.624;2023-02-28T15:48:44;11.60;;;7.45;;
52041;SDS011;38052;45.944;13.624;2023-02-28T15:51:17;9.60;;;6.07;;
52041;SDS011;38052;45.944;13.624;2023-02-28T15:53:48;8.35;;;6.40;;
52041;SDS011;38052;45.944;13.624;2023-02-28T15:58:48;9.48;;;6.40;;
52041;SDS011;38052;45.944;13.624;2023-02-28T16:01:19;8.75;;;5.60;;
52041;SDS011;38052;45.944;13.624;2023-02-28T16:03:50;7.68;;;5.35;;
52041;SDS011;38052;45.944;13.624;2023-02-28T16:08:42;10.25;;;5.88;;
52041;SDS011;38052;45.944;13.624;2023-02-28T16:11:10;10.30;;;7.05;;
52041;SDS011;38052;45.944;13.624;2023-02-28T16:13:36;9.27;;;5.55;;
52041;SDS011;38052;45.944;13.624;2023-02-28T16:16:03;12.80;;;7.88;;
52041;SDS011;38052;45.944;13.624;2023-02-28T16:18:29;10.68;;;7.18;;
52041;SDS011;38052;45.944;13.624;2023-02-28T16:20:56;9.93;;;6.97;;
52041;SDS011;38052;45.944;13.624;2023-02-28T16:23:22;8.45;;;6.13;;
52041;SDS011;38052;45.944;13.624;2023-02-28T16:25:49;10.40;;;6.75;;
52041;SDS011;38052;45.944;13.624;2023-02-28T16:28:18;8.85;;;7.10;;
52041;SDS011;38052;45.944;13.624;2023-02-28T16:30:46;11.63;;;7.87;;
52041;SDS011;38052;45.944;13.624;2023-02-28T16:33:12;10.05;;;7.05;;
52041;SDS011;38052;45.944;13.624;2023-02-28T16:35:38;12.45;;;7.20;;
52041;SDS011;38052;45.944;13.624;2023-02-28T16:38:04;11.07;;;7.28;;
52041;SDS011;38052;45.944;13.624;2023-02-28T16:40:33;10.93;;;8.70;;
52041;SDS011;38052;45.944;13.624;2023-02-28T16:42:59;12.50;;;8.20;;
52041;SDS011;38052;45.944;13.624;2023-02-28T16:45:26;10.48;;;8.13;;
52041;SDS011;38052;45.944;13.624;2023-02-28T16:47:53;11.23;;;8.80;;
52041;SDS011;38052;45.944;13.624;2023-02-28T16:50:21;12.00;;;8.30;;
52041;SDS011;38052;45.944;13.624;2023-02-28T16:52:48;12.07;;;8.60;;
52041;SDS011;38052;45.944;13.624;2023-02-28T16:55:17;16.10;;;9.48;;
52041;SDS011;38052;45.944;13.624;2023-02-28T16:57:50;13.63;;;8.35;;
52041;SDS011;38052;45.944;13.624;2023-02-28T17:00:17;14.85;;;10.20;;
52041;SDS011;38052;45.944;13.624;2023-02-28T17:02:44;17.08;;;9.85;;
52041;SDS011;38052;45.944;13.624;2023-02-28T17:05:11;11.38;;;8.27;;
52041;SDS011;38052;45.944;13.624;2023-02-28T17:07:38;14.18;;;9.00;;
52041;SDS011;38052;45.944;13.624;2023-02-28T17:10:18;15.30;;;8.15;;
52041;SDS011;38052;45.944;13.624;2023-02-28T17:12:45;16.63;;;9.32;;
52041;SDS011;38052;45.944;13.624;2023-02-28T17:15:13;12.18;;;8.25;;
52041;SDS011;38052;45.944;13.624;2023-02-28T17:17:40;12.93;;;7.53;;
52041;SDS011;38052;45.944;13.624;2023-02-28T17:20:10;12.60;;;9.05;;
52041;SDS011;38052;45.944;13.624;2023-02-28T17:22:37;15.88;;;8.32;;
52041;SDS011;38052;45.944;13.624;2023-02-28T17:25:03;11.65;;;7.72;;
52041;SDS011;38052;45.944;13.624;2023-02-28T17:27:30;11.20;;;7.60;;
52041;SDS011;38052;45.944;13.624;2023-02-28T17:29:56;14.00;;;8.60;;
52041;SDS011;38052;45.944;13.624;2023-02-28T17:32:23;15.50;;;8.43;;
52041;SDS011;38052;45.944;13.624;2023-02-28T17:34:49;10.32;;;7.65;;
52041;SDS011;38052;45.944;13.624;2023-02-28T17:37:16;13.43;;;8.95;;